Time;durP1;ratioP1;P1;durP2;ratioP2;P2;SDS_P1;SDS_P2;PMS_P1;PMS_P2;Temp;Humidity;BMP_temperature;BMP_pressure;BME280_temperature;BME280_humidity;BME280_pressure;Samples;Min_cycle;Max_cycle;Signal;HPM_P1;HPM_P2
2023/07/24 00:04:08;;;;;;;4.85;3.03;;;21.90;91.30;;;20.88;80.52;99836.09;10282728;28;98370;-87
2023/07/24 00:09:11;;;;;;;4.70;2.90;;;21.90;91.50;;;20.87;81.05;99839.88;10289280;28;96746;-84
2023/07/24 00:14:16;;;;;;;5.40;3.53;;;21.80;91.80;;;20.83;81.81;99825.19;10256582;28;98597;-87
2023/07/24 00:19:19;;;;;;;5.65;3.13;;;21.80;92.00;;;20.79;82.21;99824.03;10273605;28;96677;-87
2023/07/24 00:24:23;;;;;;;3.92;3.00;;;21.80;92.30;;;20.76;82.65;99825.38;10269987;28;97388;-87
2023/07/24 00:29:27;;;;;;;3.53;3.00;;;21.80;92.60;;;20.69;83.06;99816.59;10263562;28;98470;-86
2023/07/24 00:34:30;;;;;;;4.50;3.25;;;21.70;92.80;;;20.70;83.46;99812.03;10262847;28;97314;-87
2023/07/24 00:39:34;;;;;;;5.72;4.07;;;21.70;93.10;;;20.70;84.59;99804.75;10278811;28;97492;-87
2023/07/24 00:44:37;;;;;;;5.55;3.60;;;21.70;93.50;;;20.71;85.56;99802.84;10257412;28;96573;-87
2023/07/24 00:49:41;;;;;;;5.05;3.65;;;21.70;93.90;;;20.74;85.90;99797.78;10272874;28;96700;-87
2023/07/24 00:54:46;;;;;;;4.50;3.30;;;21.70;94.30;;;20.72;85.57;99797.19;10270303;28;96671;-84
2023/07/24 00:59:50;;;;;;;4.07;3.10;;;21.70;94.40;;;20.71;85.85;99798.28;10272663;28;96587;-85
2023/07/24 01:04:53;;;;;;;5.75;3.97;;;21.70;94.60;;;20.70;85.51;99785.84;10279078;28;98537;-85
2023/07/24 01:09:57;;;;;;;4.05;3.25;;;21.70;94.80;;;20.66;85.62;99789.25;10274724;28;96467;-85
2023/07/24 01:15:34;;;;;;;3.63;2.67;;;21.60;95.20;;;20.57;86.31;99784.28;10286963;28;96598;-86
2023/07/24 01:20:53;;;;;;;4.35;2.90;;;21.60;95.20;;;20.52;86.61;99783.38;10235254;28;96970;-86
2023/07/24 01:25:59;;;;;;;5.10;3.10;;;21.50;95.50;;;20.43;87.34;99774.78;10274828;28;96614;-85
2023/07/24 01:31:02;;;;;;;3.42;2.83;;;21.40;95.90;;;20.40;89.14;99786.09;10270003;28;96650;-86
2023/07/24 01:36:07;;;;;;;4.10;3.15;;;21.40;96.40;;;20.35;90.04;99774.38;10281845;28;96531;-85
2023/07/24 01:41:11;;;;;;;4.60;3.35;;;21.30;97.00;;;20.34;90.73;99770.06;10242169;28;97379;-85
2023/07/24 01:46:15;;;;;;;4.30;3.33;;;21.30;97.40;;;20.34;91.41;99770.88;10288641;28;96764;-85
2023/07/24 01:51:18;;;;;;;5.93;3.88;;;21.30;97.80;;;20.32;91.33;99764.88;10289741;28;96642;-85
2023/07/24 01:56:22;;;;;;;4.95;3.45;;;21.30;98.30;;;20.34;91.85;99765.47;10257943;28;96550;-85
2023/07/24 02:01:25;;;;;;;4.90;4.03;;;21.30;98.60;;;20.33;92.19;99774.59;10245181;28;97261;-85
2023/07/24 02:06:29;;;;;;;4.90;4.10;;;21.30;98.90;;;20.32;92.26;99773.78;10242901;28;97323;-87
2023/07/24 02:11:33;;;;;;;4.93;3.53;;;21.30;99.30;;;20.27;92.72;99771.03;10271952;28;96628;-87
2023/07/24 02:16:37;;;;;;;4.97;3.70;;;21.30;99.60;;;20.21;93.36;99774.69;10289446;28;96594;-87
2023/07/24 02:21:40;;;;;;;4.45;3.85;;;21.20;99.90;;;20.20;93.73;99775.72;10280863;28;96556;-87
2023/07/24 02:26:44;;;;;;;5.68;3.60;;;21.20;99.90;;;20.19;94.27;99778.66;10278549;28;96637;-87
2023/07/24 02:31:49;;;;;;;5.22;3.80;;;21.20;99.90;;;20.13;95.48;99768.84;10276746;28;98358;-86
2023/07/24 02:36:53;;;;;;;5.15;3.83;;;21.10;99.90;;;20.14;96.34;99778.56;10273884;28;96967;-85
2023/07/24 02:41:57;;;;;;;4.43;3.50;;;21.10;99.90;;;20.10;96.30;99782.81;10294765;28;96635;-86
2023/07/24 02:47:00;;;;;;;7.13;5.65;;;21.10;99.90;;;20.03;95.58;99781.09;10274203;28;96963;-86
2023/07/24 02:52:05;;;;;;;5.65;3.67;;;21.00;99.90;;;19.95;96.06;99773.34;10280935;28;96680;-86
2023/07/24 02:57:09;;;;;;;7.32;4.63;;;21.00;99.90;;;19.94;96.43;99774.41;10274923;28;97004;-86
2023/07/24 03:02:12;;;;;;;5.35;4.32;;;21.00;99.90;;;19.88;98.02;99767.28;10274988;28;98609;-85
2023/07/24 03:07:16;;;;;;;5.63;4.43;;;20.90;99.90;;;19.90;98.52;99769.72;10277274;28;96620;-86
2023/07/24 03:12:20;;;;;;;5.43;4.15;;;20.90;99.90;;;19.90;98.47;99777.81;10276442;28;96550;-86
2023/07/24 03:17:23;;;;;;;5.22;4.05;;;20.90;99.90;;;19.87;98.65;99768.34;10275153;28;96498;-86
2023/07/24 03:22:27;;;;;;;6.57;4.00;;;20.90;99.90;;;19.83;98.88;99759.09;10283783;28;96484;-87
2023/07/24 03:27:30;;;;;;;6.10;4.07;;;20.80;99.90;;;19.77;99.00;99762.75;10331875;28;96708;-86
2023/07/24 03:32:37;;;;;;;6.72;4.20;;;20.80;99.90;;;19.75;99.43;99757.59;10290220;28;97727;-86
2023/07/24 03:37:41;;;;;;;5.88;4.25;;;20.70;99.90;;;19.74;99.49;99763.22;10274160;28;96629;-86
2023/07/24 03:42:45;;;;;;;8.85;5.50;;;20.70;99.90;;;19.69;99.96;99765.81;10251137;28;96899;-86
2023/07/24 03:47:48;;;;;;;6.03;4.80;;;20.70;99.90;;;19.69;100.00;99763.94;10271946;28;98906;-87
2023/07/24 03:52:52;;;;;;;6.88;4.43;;;20.70;99.90;;;19.65;100.00;99754.69;10273066;28;96651;-87
2023/07/24 03:57:55;;;;;;;6.78;4.90;;;20.70;99.90;;;19.68;100.00;99761.50;10270139;28;97371;-88
2023/07/24 04:02:59;;;;;;;5.80;4.60;;;20.70;99.90;;;19.73;100.00;99766.97;10265798;28;96954;-84
2023/07/24 04:08:03;;;;;;;7.57;4.90;;;20.70;99.90;;;19.76;100.00;99771.88;10270646;28;96654;-84
2023/07/24 04:13:07;;;;;;;5.82;4.60;;;20.70;99.90;;;19.83;100.00;99758.28;10274758;28;96584;-86
2023/07/24 04:18:11;;;;;;;6.30;4.53;;;20.70;99.90;;;19.95;100.00;99767.13;10272478;28;96929;-84
2023/07/24 04:23:15;;;;;;;8.48;4.60;;;20.90;99.90;;;20.07;100.00;99759.81;10288424;28;96653;-84
2023/07/24 04:28:18;;;;;;;6.20;5.28;;;21.00;99.90;;;20.19;100.00;99751.69;10269179;28;97476;-86
2023/07/24 04:33:22;;;;;;;5.45;4.30;;;21.10;99.90;;;20.28;100.00;99750.25;10267987;28;97833;-84
2023/07/24 04:38:26;;;;;;;5.38;4.55;;;21.20;99.90;;;20.36;100.00;99747.16;10286395;28;96719;-83
2023/07/24 04:43:30;;;;;;;7.97;4.88;;;21.20;99.90;;;20.45;100.00;99739.47;10286350;28;97065;-84
2023/07/24 04:48:33;;;;;;;6.65;5.00;;;21.30;99.90;;;20.56;100.00;99742.13;10285906;28;96612;-84
2023/07/24 04:53:37;;;;;;;8.32;5.57;;;21.50;99.90;;;20.71;100.00;99754.25;10281729;28;96735;-84
2023/07/24 04:58:40;;;;;;;7.45;5.90;;;21.60;99.90;;;20.86;100.00;99746.38;10265552;28;96973;-84
2023/07/24 05:03:44;;;;;;;7.80;4.80;;;21.80;99.90;;;21.03;100.00;99752.59;10238130;28;96655;-84
2023/07/24 05:08:47;;;;;;;7.43;5.45;;;21.90;99.90;;;21.21;100.00;99759.63;10247150;28;96630;-84
2023/07/24 05:13:51;;;;;;;7.43;5.57;;;22.10;99.90;;;21.39;99.58;99755.84;10247165;28;96867;-85
2023/07/24 05:18:54;;;;;;;7.05;5.38;;;22.30;99.90;;;21.58;99.29;99764.47;10247451;28;97953;-85
2023/07/24 05:23:58;;;;;;;6.60;5.72;;;22.50;99.90;;;21.75;97.99;99761.72;10247909;28;98377;-85
2023/07/24 05:29:01;;;;;;;7.70;6.00;;;22.70;99.90;;;21.89;97.21;99765.66;10239285;28;98663;-88
2023/07/24 05:34:05;;;;;;;9.07;6.25;;;22.80;99.90;;;22.05;96.29;99753.16;10246219;28;96684;-86
2023/07/24 05:39:08;;;;;;;10.77;6.57;;;23.00;99.90;;;22.15;94.16;99753.28;10243939;28;97453;-88
2023/07/24 05:44:12;;;;;;;9.07;6.03;;;23.10;99.90;;;22.30;92.59;99758.84;10248783;28;96563;-87
2023/07/24 05:49:15;;;;;;;6.40;5.47;;;23.30;99.90;;;22.43;92.77;99755.75;10264905;28;97752;-87
2023/07/24 05:54:19;;;;;;;9.00;6.22;;;23.40;99.90;;;22.59;91.84;99748.56;10256879;28;96457;-88
2023/07/24 05:59:23;;;;;;;8.05;5.70;;;23.60;99.90;;;22.74;91.23;99747.88;10253840;28;96871;-87
2023/07/24 06:04:26;;;;;;;8.50;6.05;;;23.70;99.90;;;22.84;90.33;99749.84;10254536;28;97112;-87
2023/07/24 06:09:30;;;;;;;7.20;5.43;;;23.80;99.90;;;23.00;89.79;99732.66;10253168;28;97477;-86
2023/07/24 06:14:33;;;;;;;9.73;6.13;;;24.00;99.90;;;23.17;88.70;99727.91;10252331;28;97025;-87
2023/07/24 06:19:37;;;;;;;6.57;5.88;;;24.10;99.90;;;23.32;87.68;99731.75;10252822;28;96788;-87
2023/07/24 06:24:41;;;;;;;6.03;5.22;;;24.30;99.90;;;23.45;87.43;99729.41;10253446;28;98217;-86
2023/07/24 06:29:44;;;;;;;12.05;6.47;;;24.40;99.90;;;23.61;85.96;99719.44;10250833;28;97075;-87
2023/07/24 06:34:48;;;;;;;8.23;6.68;;;24.60;99.90;;;23.76;85.87;99708.69;10254196;28;96626;-89
2023/07/24 06:39:51;;;;;;;7.85;6.15;;;24.70;99.90;;;23.87;85.03;99722.25;10253841;28;96622;-89
2023/07/24 06:44:55;;;;;;;11.57;6.88;;;24.80;99.90;;;24.01;84.17;99723.41;10236315;28;96549;-90
2023/07/24 06:49:58;;;;;;;6.93;5.70;;;25.00;99.90;;;24.05;83.60;99721.78;10251651;28;96661;-89
2023/07/24 06:55:03;;;;;;;6.13;5.30;;;25.10;99.90;;;24.20;84.04;99721.00;10243789;28;96873;-90
2023/07/24 07:00:11;;;;;;;7.70;6.10;;;25.20;99.90;;;24.43;83.94;99723.22;10243348;28;96799;-89
2023/07/24 07:05:14;;;;;;;9.98;6.72;;;25.40;99.90;;;24.59;82.18;99707.75;10228020;28;96761;-88
2023/07/24 07:10:18;;;;;;;8.05;6.65;;;25.60;99.90;;;24.79;81.33;99705.00;10241976;28;96989;-90
2023/07/24 07:15:22;;;;;;;10.65;7.50;;;25.70;99.90;;;24.94;79.97;99692.47;10250519;28;96592;-87
2023/07/24 07:20:25;;;;;;;8.77;5.95;;;25.90;99.90;;;25.13;80.15;99687.31;10247959;28;97501;-90
2023/07/24 07:25:28;;;;;;;7.38;6.53;;;26.10;99.90;;;25.30;78.23;99677.72;10241783;28;96575;-89
2023/07/24 07:30:32;;;;;;;10.95;6.95;;;26.30;99.50;;;25.47;78.38;99679.31;10249309;28;96682;-90
2023/07/24 07:35:36;;;;;;;9.77;6.10;;;26.40;99.10;;;25.64;77.13;99679.78;10250475;28;97376;-90
2023/07/24 07:40:40;;;;;;;9.13;7.40;;;26.70;99.00;;;25.85;76.60;99688.69;10261015;28;96577;-89
2023/07/24 07:45:44;;;;;;;12.10;7.35;;;26.90;98.60;;;26.03;75.63;99682.59;10253284;28;96639;-89
2023/07/24 07:50:51;;;;;;;9.75;7.07;;;27.00;98.20;;;26.23;74.87;99668.00;10248721;28;98202;-89
2023/07/24 07:55:57;;;;;;;8.60;6.78;;;27.20;98.00;;;26.48;74.03;99660.75;10245215;28;97702;-90
2023/07/24 08:01:06;;;;;;;9.02;7.00;;;27.50;97.60;;;26.68;73.16;99674.19;10241244;28;96580;-89
2023/07/24 08:06:11;;;;;;;13.77;7.75;;;27.70;97.40;;;26.97;71.55;99659.72;10256069;28;96897;-94
2023/07/24 08:11:14;;;;;;;9.68;7.38;;;28.00;96.90;;;27.20;71.16;99662.47;10255013;28;97000;-90
2023/07/24 08:16:19;;;;;;;9.75;8.45;;;28.20;96.60;;;27.26;69.47;99654.25;10257844;28;97077;-90
2023/07/24 08:21:22;;;;;;;11.60;7.85;;;28.20;95.70;;;27.21;70.04;99644.19;10279324;28;96599;-91
2023/07/24 08:26:26;;;;;;;8.63;6.60;;;28.20;95.80;;;27.34;70.32;99648.94;10281258;28;97375;-92
2023/07/24 08:31:31;;;;;;;8.50;6.18;;;28.30;95.70;;;27.45;69.59;99642.25;10273557;28;96619;-92
2023/07/24 08:36:34;;;;;;;11.75;6.95;;;28.40;95.50;;;27.63;69.72;99651.56;10275275;28;97058;-91
2023/07/24 08:41:38;;;;;;;8.48;6.63;;;28.60;95.20;;;27.70;67.63;99634.84;10263486;28;97004;-90
2023/07/24 08:46:45;;;;;;;11.68;7.10;;;28.70;94.80;;;27.81;68.92;99639.06;10241632;28;97210;-91
2023/07/24 08:51:49;;;;;;;9.32;6.70;;;28.80;95.20;;;28.05;67.64;99624.50;10240961;28;97613;-90
2023/07/24 08:56:55;;;;;;;10.88;6.20;;;29.00;94.90;;;28.27;66.82;99616.50;10274740;28;96626;-91
2023/07/24 09:01:58;;;;;;;9.70;6.10;;;29.20;94.20;;;28.39;64.87;99605.94;10297250;28;96684;-91
2023/07/24 09:07:02;;;;;;;12.02;6.80;;;29.30;93.50;;;28.57;64.23;99598.78;10307843;28;96937;-89
2023/07/24 09:12:06;;;;;;;11.52;6.47;;;29.50;93.40;;;28.78;64.14;99591.00;10314121;28;96982;-92
2023/07/24 09:17:11;;;;;;;12.43;7.22;;;29.70;92.90;;;28.96;62.64;99595.59;10268405;28;97892;-92
2023/07/24 09:22:15;;;;;;;7.47;6.45;;;29.90;92.80;;;29.29;61.46;99593.56;10272043;28;96779;-90
2023/07/24 09:27:26;;;;;;;10.55;6.72;;;30.20;92.00;;;29.54;60.25;99594.13;10273744;28;96609;-91
2023/07/24 09:32:31;;;;;;;11.10;7.38;;;30.50;91.20;;;29.85;59.45;99584.09;10274630;28;96432;-93
2023/07/24 09:37:35;;;;;;;10.30;7.00;;;30.70;90.60;;;30.03;56.90;99571.31;10288862;28;98794;-91
2023/07/24 09:42:42;;;;;;;12.40;7.03;;;30.90;89.10;;;30.23;57.52;99556.34;10288131;28;96566;-91
2023/07/24 09:48:10;;;;;;;9.10;7.00;;;31.10;88.80;;;30.50;54.30;99549.84;10277157;28;96608;-93
2023/07/24 09:53:48;;;;;;;11.75;7.57;;;31.40;85.60;;;30.59;49.29;99537.00;10276970;28;96616;-92
2023/07/24 09:58:55;;;;;;;10.07;7.57;;;31.60;80.80;;;30.70;49.75;99532.06;10272824;28;96537;-90
2023/07/24 10:04:00;;;;;;;8.60;7.03;;;31.70;80.20;;;30.83;49.04;99533.09;10274253;28;96552;-91
2023/07/24 10:09:06;;;;;;;14.00;8.93;;;31.80;78.80;;;30.97;48.50;99536.50;10270781;28;96801;-90
2023/07/24 10:14:10;;;;;;;12.23;8.43;;;31.90;77.40;;;31.07;47.41;99519.75;10258677;28;96798;-91
2023/07/24 10:19:17;;;;;;;8.93;7.20;;;32.00;75.50;;;31.30;47.70;99514.13;10290056;28;96427;-91
2023/07/24 10:24:28;;;;;;;11.05;8.25;;;32.20;75.30;;;31.44;47.78;99509.31;10289809;28;96487;-90
2023/07/24 10:29:46;;;;;;;13.88;8.70;;;32.40;75.40;;;31.66;45.41;99503.63;10274552;28;96523;-92
2023/07/24 10:35:08;;;;;;;10.07;7.72;;;32.60;72.90;;;31.64;44.87;99496.84;10272073;28;96571;-89
2023/07/24 10:40:22;;;;;;;10.40;8.25;;;32.60;71.50;;;31.64;44.19;99488.59;10279697;28;96542;-90
2023/07/24 10:45:26;;;;;;;12.48;8.95;;;32.60;70.60;;;31.78;44.63;99483.72;10262823;28;96514;-92
2023/07/24 10:50:38;;;;;;;11.50;8.27;;;32.70;70.50;;;32.08;44.21;99470.09;10275526;28;98661;-93
2023/07/24 10:55:43;;;;;;;14.15;9.38;;;33.00;69.70;;;32.27;42.62;99465.03;10295685;28;96544;-90
2023/07/24 11:00:47;;;;;;;13.70;9.10;;;33.20;67.80;;;32.43;41.22;99462.56;10293474;28;97595;-91
2023/07/24 11:05:53;;;;;;;13.57;8.88;;;33.40;66.60;;;32.46;38.97;99453.66;10295632;28;96594;-88
2023/07/24 11:10:58;;;;;;;12.15;9.25;;;33.50;64.20;;;32.49;40.91;99436.47;10287258;28;97341;-90
2023/07/24 11:16:08;;;;;;;10.90;8.40;;;33.50;64.60;;;32.70;40.59;99426.31;10288855;28;97642;-91
2023/07/24 11:21:13;;;;;;;13.48;10.18;;;33.60;64.00;;;32.96;39.61;99414.34;10266013;28;96890;-91
2023/07/24 11:26:25;;;;;;;13.20;8.63;;;33.90;63.70;;;33.11;39.12;99412.91;10283018;28;97419;-91
2023/07/24 11:31:38;;;;;;;13.50;8.55;;;34.00;62.50;;;33.00;37.84;99407.03;10296650;28;96485;-96
2023/07/24 11:36:42;;;;;;;13.80;9.02;;;34.00;60.90;;;32.82;37.87;99400.03;10286799;28;96533;-94
2023/07/24 11:41:45;;;;;;;10.55;7.93;;;33.80;60.80;;;32.85;37.74;99383.66;10280511;28;97009;-96
2023/07/24 11:46:49;;;;;;;12.75;8.80;;;33.80;60.60;;;33.09;37.65;99380.22;10314208;28;96762;-96
2023/07/24 11:51:58;;;;;;;13.50;8.23;;;33.90;60.00;;;33.36;37.78;99359.59;10278848;28;96610;-89
2023/07/24 11:57:13;;;;;;;9.85;7.63;;;34.20;59.80;;;33.50;36.79;99356.53;10276867;28;98457;-91
2023/07/24 12:02:18;;;;;;;11.43;8.00;;;34.50;59.40;;;33.71;36.34;99338.00;10292408;28;96745;-90
2023/07/24 12:07:34;;;;;;;12.02;8.15;;;34.60;59.00;;;33.84;33.35;99332.50;10273972;28;96647;-92
2023/07/24 12:12:45;;;;;;;9.27;7.57;;;34.80;56.30;;;33.82;32.99;99328.09;10291078;28;96607;-93
2023/07/24 12:17:49;;;;;;;9.63;7.57;;;34.70;54.40;;;33.99;32.83;99326.31;10257941;28;97212;-90
2023/07/24 12:22:53;;;;;;;11.20;8.27;;;34.80;54.20;;;34.12;33.17;99308.59;10277442;28;96576;-93
2023/07/24 12:27:58;;;;;;;11.98;8.13;;;35.00;54.80;;;34.28;33.49;99303.19;10271270;28;97341;-93
2023/07/24 12:33:02;;;;;;;8.93;7.13;;;35.20;54.80;;;34.22;31.29;99302.63;10286756;28;98185;-95
2023/07/24 12:38:06;;;;;;;8.95;7.03;;;35.20;53.00;;;33.90;32.23;99295.28;10292152;28;96746;-90
2023/07/24 12:43:10;;;;;;;9.75;7.90;;;34.80;52.90;;;33.87;32.28;99283.00;10287087;28;97427;-94
2023/07/24 12:48:13;;;;;;;10.13;7.25;;;34.80;53.10;;;34.08;32.73;99263.59;10249784;28;98670;-93
2023/07/24 12:53:17;;;;;;;10.68;7.35;;;35.00;53.50;;;34.35;31.69;99262.03;10257670;28;96742;-89
2023/07/24 12:58:27;;;;;;;8.18;6.90;;;35.20;53.10;;;34.42;33.30;99256.72;10289278;28;96583;-93
2023/07/24 13:03:31;;;;;;;7.93;6.78;;;35.50;53.70;;;34.69;32.14;99246.91;10276501;28;98436;-90
2023/07/24 13:08:35;;;;;;;12.55;6.68;;;35.80;52.70;;;34.95;31.48;99249.19;10255018;28;96728;-87
2023/07/24 13:13:38;;;;;;;11.75;6.78;;;36.10;52.20;;;34.95;31.45;99234.59;10287052;28;96598;-87
2023/07/24 13:18:42;;;;;;;9.95;6.93;;;36.20;51.80;;;34.83;32.29;99227.97;10272832;28;96744;-89
2023/07/24 13:23:46;;;;;;;9.50;6.55;;;36.10;52.10;;;35.02;32.33;99213.50;10285740;28;96576;-89
2023/07/24 13:28:50;;;;;;;8.10;6.60;;;36.40;52.30;;;35.33;32.50;99209.16;10272199;28;97261;-89
2023/07/24 13:33:54;;;;;;;8.95;6.35;;;36.70;52.30;;;35.54;32.46;99206.94;10272038;28;96645;-92
2023/07/24 13:38:57;;;;;;;6.78;6.07;;;37.00;52.80;;;36.08;33.67;99186.06;10287053;28;96941;-93
2023/07/24 13:44:01;;;;;;;7.78;6.68;;;37.40;53.90;;;36.44;32.52;99169.03;10251569;28;97703;-86
2023/07/24 13:49:04;;;;;;;8.10;6.78;;;37.60;53.10;;;36.37;31.46;99177.19;10252410;28;97393;-91
2023/07/24 13:54:07;;;;;;;8.80;7.32;;;37.40;52.40;;;36.24;32.81;99167.44;10274425;28;96473;-88
2023/07/24 13:59:11;;;;;;;10.07;8.10;;;37.00;53.60;;;36.03;32.00;99164.22;10274057;28;96708;-90
2023/07/24 14:04:15;;;;;;;13.57;9.50;;;36.80;52.90;;;35.55;31.08;99163.53;10292110;28;96381;-94
2023/07/24 14:09:19;;;;;;;12.50;10.10;;;36.40;51.60;;;34.95;31.46;99157.31;10260456;28;96978;-90
2023/07/24 14:14:24;;;;;;;12.75;9.55;;;35.90;51.50;;;34.18;31.96;99144.56;10278758;28;96699;-89
2023/07/24 14:19:28;;;;;;;11.10;9.55;;;35.20;51.70;;;33.58;32.78;99134.47;10279689;28;96527;-91
2023/07/24 14:24:32;;;;;;;11.65;9.43;;;34.50;52.20;;;33.09;34.11;99116.03;10261963;28;98714;-91
2023/07/24 14:29:35;;;;;;;14.65;9.93;;;34.10;53.40;;;32.86;35.15;99123.06;10278666;28;97314;-90
2023/07/24 14:34:39;;;;;;;15.73;10.10;;;33.80;54.30;;;32.62;36.17;99118.34;10297110;28;96576;-91
2023/07/24 14:39:47;;;;;;;11.90;9.80;;;33.50;55.10;;;32.42;35.21;99109.00;10277760;28;96645;-86
2023/07/24 14:44:50;;;;;;;14.57;10.05;;;33.30;54.50;;;32.30;34.29;99100.69;10222663;28;96406;-89
2023/07/24 14:49:54;;;;;;;12.55;9.38;;;33.10;53.60;;;32.16;35.06;99070.78;10294165;28;96584;-92
2023/07/24 14:54:57;;;;;;;13.13;9.82;;;33.00;54.20;;;32.22;35.97;99077.66;10292673;28;96605;-93
2023/07/24 15:00:01;;;;;;;12.68;10.25;;;33.10;55.00;;;32.24;35.27;99073.44;10262519;28;96473;-90
2023/07/24 15:05:06;;;;;;;13.98;10.23;;;33.20;54.20;;;32.49;35.92;99073.50;10276971;28;97210;-88
2023/07/24 15:10:09;;;;;;;15.07;9.55;;;33.50;54.40;;;32.79;34.50;99065.06;10276998;28;96539;-88
2023/07/24 15:15:13;;;;;;;17.90;9.82;;;33.90;53.60;;;32.81;33.67;99051.75;10261864;28;98288;-90
2023/07/24 15:20:17;;;;;;;14.07;9.85;;;33.90;52.70;;;32.68;33.96;99048.22;10295157;28;96404;-90
2023/07/24 15:25:21;;;;;;;12.55;9.60;;;33.70;52.90;;;32.80;34.22;99042.72;10277454;28;96679;-91
2023/07/24 15:30:25;;;;;;;12.68;9.65;;;33.90;53.00;;;33.03;33.68;99027.38;10277076;28;96570;-90
2023/07/24 15:35:29;;;;;;;13.90;9.57;;;34.20;52.50;;;33.49;33.12;99017.00;10294946;28;96705;-88
2023/07/24 15:40:33;;;;;;;14.63;9.70;;;34.70;52.50;;;33.88;33.29;99027.53;10261312;28;96637;-89
2023/07/24 15:45:37;;;;;;;13.15;8.90;;;35.10;52.20;;;34.18;31.85;99026.00;10276481;28;96731;-87
2023/07/24 15:50:41;;;;;;;11.57;9.88;;;35.50;51.10;;;33.73;31.10;99035.41;10276479;28;96602;-89
2023/07/24 15:55:44;;;;;;;13.27;9.27;;;35.00;50.10;;;33.13;32.49;99050.88;10275866;28;99025;-92
2023/07/24 16:00:48;;;;;;;15.23;9.27;;;34.30;50.90;;;32.95;32.77;99028.31;10288712;28;96562;-87
2023/07/24 16:05:53;;;;;;;12.90;9.27;;;34.00;51.50;;;33.08;33.54;99009.03;10291617;28;96641;-90
2023/07/24 16:10:57;;;;;;;12.18;9.93;;;34.00;52.00;;;33.16;33.27;99014.41;10273331;28;96578;-85
2023/07/24 16:16:01;;;;;;;12.23;9.00;;;34.10;52.30;;;32.95;33.55;99002.75;10276812;28;96543;-91
2023/07/24 16:21:05;;;;;;;11.77;9.35;;;33.90;52.40;;;32.74;34.00;99003.63;10293393;28;97898;-88
2023/07/24 16:26:08;;;;;;;16.70;10.23;;;33.60;52.80;;;32.52;34.29;98986.81;10292564;28;96601;-91
2023/07/24 16:31:12;;;;;;;14.40;9.63;;;33.40;52.80;;;32.24;34.81;98993.72;10260996;28;96536;-90
2023/07/24 16:36:15;;;;;;;12.75;8.93;;;33.20;53.20;;;32.01;35.02;98992.50;10289700;28;96697;-87
2023/07/24 16:41:19;;;;;;;15.95;9.98;;;32.90;53.40;;;31.70;35.78;98991.00;10290780;28;96583;-90
2023/07/24 16:46:23;;;;;;;13.75;9.57;;;32.60;54.00;;;31.43;36.89;98969.63;10291545;28;96617;-89
2023/07/24 16:51:28;;;;;;;12.00;8.98;;;32.40;54.80;;;31.30;37.11;99000.88;10275500;28;96547;-91
2023/07/24 16:56:33;;;;;;;12.68;9.50;;;32.20;55.40;;;31.06;38.57;98994.06;10291491;28;96515;-89
2023/07/24 17:01:36;;;;;;;19.63;9.75;;;31.90;56.20;;;30.87;38.80;98989.03;10274423;28;96552;-91
2023/07/24 17:06:42;;;;;;;15.50;8.77;;;31.70;56.90;;;30.73;39.35;98990.41;10274454;28;96988;-90
2023/07/24 17:11:46;;;;;;;12.05;8.63;;;31.50;57.30;;;30.62;39.69;98985.25;10291542;28;96807;-90
2023/07/24 17:16:49;;;;;;;14.93;9.00;;;31.40;57.60;;;30.48;40.05;98978.41;10274389;28;96420;-89
2023/07/24 17:21:53;;;;;;;13.65;9.13;;;31.30;58.00;;;30.37;40.73;98981.50;10273839;28;96459;-92
2023/07/24 17:26:56;;;;;;;11.60;8.48;;;31.20;58.60;;;30.22;41.12;98984.78;10265413;28;96701;-90
2023/07/24 17:32:00;;;;;;;12.85;7.82;;;31.00;58.70;;;30.10;41.68;98987.34;10275707;28;97679;-90
2023/07/24 17:37:04;;;;;;;13.48;8.73;;;30.90;59.10;;;29.99;41.66;98991.56;10274150;28;96607;-89
2023/07/24 17:42:08;;;;;;;13.65;8.35;;;30.70;59.30;;;29.86;41.13;98975.00;10288520;28;96568;-90
2023/07/24 17:47:12;;;;;;;12.05;7.60;;;30.60;59.10;;;29.82;41.42;98971.31;10295810;28;96469;-91
2023/07/24 17:52:16;;;;;;;12.90;8.45;;;30.50;59.40;;;29.74;42.06;98963.09;10297418;28;96466;-89
2023/07/24 17:57:19;;;;;;;12.00;8.18;;;30.50;59.80;;;29.64;41.93;98953.31;10280679;28;96552;-90
2023/07/24 18:02:24;;;;;;;11.25;7.07;;;30.40;59.80;;;29.56;42.05;98949.44;10255868;28;96703;-91
2023/07/24 18:07:27;;;;;;;11.13;7.40;;;30.30;60.00;;;29.52;42.86;98951.22;10270070;28;96555;-89
2023/07/24 18:12:32;;;;;;;13.02;7.55;;;30.30;60.50;;;29.42;42.91;98937.84;10272009;28;96556;-92
2023/07/24 18:17:35;;;;;;;14.40;7.65;;;30.10;60.70;;;29.34;43.27;98935.91;10263040;28;96614;-92
2023/07/24 18:22:39;;;;;;;12.80;7.45;;;30.10;61.00;;;29.29;43.39;98931.41;10263316;28;96527;-91
2023/07/24 18:27:42;;;;;;;12.25;7.63;;;30.00;61.30;;;29.22;44.43;98920.16;10278878;28;96668;-91
2023/07/24 18:32:46;;;;;;;10.68;7.10;;;30.00;61.90;;;29.15;44.44;98914.38;10296664;28;96439;-90
2023/07/24 18:37:50;;;;;;;12.40;6.38;;;29.90;62.10;;;29.09;44.96;98926.59;10278307;28;96960;-92
2023/07/24 18:42:53;;;;;;;10.90;6.72;;;29.80;62.40;;;28.98;45.47;98934.28;10278761;28;96721;-89
2023/07/24 18:47:59;;;;;;;12.30;7.38;;;29.70;63.00;;;28.96;46.06;98958.41;10278971;28;96609;-90
2023/07/24 18:53:03;;;;;;;11.45;7.10;;;29.70;63.50;;;28.90;46.21;98937.78;10294650;28;96643;-91
2023/07/24 18:58:06;;;;;;;10.45;6.68;;;29.60;63.80;;;28.83;46.65;98942.91;10278398;28;96612;-91
2023/07/24 19:03:11;;;;;;;11.77;6.80;;;29.60;64.30;;;28.74;47.47;98950.31;10278340;28;97475;-91
2023/07/24 19:08:15;;;;;;;12.07;6.78;;;29.50;64.90;;;28.64;47.90;98954.13;10278091;28;96609;-90
2023/07/24 19:13:18;;;;;;;10.45;6.90;;;29.40;65.50;;;28.59;48.72;98951.53;10278710;28;96461;-91
2023/07/24 19:18:22;;;;;;;12.63;7.20;;;29.30;66.20;;;28.50;49.91;98948.78;10293467;28;96546;-92
2023/07/24 19:23:25;;;;;;;12.23;6.88;;;29.20;66.60;;;28.45;50.10;98950.88;10294325;28;96530;-91
2023/07/24 19:28:29;;;;;;;11.80;7.45;;;29.20;67.60;;;28.40;50.79;98945.53;10276765;28;96991;-91
2023/07/24 19:33:32;;;;;;;12.75;7.20;;;29.10;67.90;;;28.34;51.62;98942.13;10277028;28;96526;-90
2023/07/24 19:38:36;;;;;;;14.32;7.63;;;29.00;68.50;;;28.26;52.21;98937.44;10261002;28;96537;-92
2023/07/24 19:43:40;;;;;;;12.38;7.50;;;29.00;69.10;;;28.20;52.49;98935.97;10276503;28;96792;-93
2023/07/24 19:48:44;;;;;;;12.82;7.22;;;28.90;69.80;;;28.09;53.46;98920.97;10293734;28;96466;-92
2023/07/24 19:53:47;;;;;;;12.18;7.13;;;28.80;70.40;;;27.99;54.06;98922.84;10274167;28;96797;-88
2023/07/24 19:58:51;;;;;;;15.80;6.85;;;28.70;70.70;;;27.94;54.40;98935.81;10293701;28;96495;-90
2023/07/24 20:03:54;;;;;;;15.88;7.43;;;28.70;71.10;;;27.81;54.94;98928.50;10291471;28;96584;-92
2023/07/24 20:08:59;;;;;;;13.73;7.05;;;28.60;72.00;;;27.74;54.50;98926.22;10271819;28;96679;-91
2023/07/24 20:14:03;;;;;;;12.50;6.78;;;28.50;71.30;;;27.73;53.75;98913.72;10249690;28;96801;-93
2023/07/24 20:19:07;;;;;;;12.48;6.40;;;28.40;70.90;;;27.73;52.07;98876.31;10278540;28;96481;-93
2023/07/24 20:24:12;;;;;;;10.98;6.10;;;28.40;70.00;;;27.81;49.74;98901.22;10276742;28;96624;-93
2023/07/24 20:29:17;;;;;;;11.70;6.00;;;28.40;68.00;;;27.87;49.97;98906.22;10279868;28;96423;-92
2023/07/24 20:34:21;;;;;;;10.88;6.25;;;28.50;67.90;;;27.85;50.59;98874.91;10276920;28;96897;-90
2023/07/24 20:39:25;;;;;;;11.40;6.57;;;28.50;68.30;;;27.71;51.43;98902.31;10299131;28;96486;-91
2023/07/24 20:44:29;;;;;;;9.45;6.03;;;28.40;68.90;;;27.55;51.70;98888.22;10272916;28;96624;-91
2023/07/24 20:49:34;;;;;;;8.27;5.53;;;28.30;69.10;;;27.41;51.91;98893.75;10274069;28;96778;-90
2023/07/24 20:54:38;;;;;;;10.30;6.45;;;28.10;69.20;;;27.29;52.39;98889.94;10274257;28;96510;-90
2023/07/24 20:59:41;;;;;;;10.90;5.75;;;28.00;70.20;;;27.13;51.78;98876.69;10274569;28;96531;-93